Rapid City Regional Airport Rapid City US
ICAO: KRAP
IATA: RAP
Category: Medium
Scheduled Services: Yes

Elevation: 3204 ft
TransAlt. 18000 ft.

Airport Communications:
ELLSWORTH APP:119.5
ASOS:118.525
CTAF:125.85
ELLSWORTH DEP:119.5
GND:121.9
ARNG OPS:41.5
HURON RDO:122.65
TWR:125.85
UNICOM:122.95

KRAP Zoom In..

If you have problems with the map follow the link
https://www.worldairports.se/pages/airport.php?
ICAO=KRAP

Runways:

(A) RW 05 length 3601 ft width 75 ft
---- / hdg 54

(B) RW 14 length 8701 ft width 150 ft
---- / hdg 144

(C) RW 23 length 3601 ft width 75 ft
---- / hdg 234

(D) RW 32 length 8701 ft width 150 ft
ILS 109.30 / hdg 324

Location; KRAP
Day. 08 / Time. 03.52 Zulu
* Altimeter: 29.76
* Temperature: 00° c. 32°f.
* Wind from: 000° Speed 00 kn.
Dewpoint: -06° c.
Visibility: 10 Statute Miles.
Clouds: Clear (automated report).

KRAP 080352Z 00000KT 10SM CLR 00/M06 A2976 RMK AO2 SLP103 T00001056


Wind - Calm.

 
 
jpsmedia worldairports.se 2019   terms of use